Strona główna
METAR-TAF:

METAR-TAF

Lotnisko :

Port lotniczy Genua

Genua, Włochy

Szerokość geograficzna: 44-25N, Długość geograficzna: 008-51E, wysokość: 2 m

Aktualna obserwacja pogody

Raport powstał 40 minut temu, godzina 11:50 UTC
Wiatr 8 kt od południowy wschód
Temperatura 14°C
Wilgotność 88%
Ciśnienie 1022 hPa
Widzialność 10 km lub więcej
Rozproszone chmury na wysokości 2000 ft
Rozproszone chmury na wysokości 3000 ft

METAR: LIMJ 241150Z 13008KT 9999 SCT020 SCT030 14/12 Q1022

czas: 13:30 (12:30 UTC)

Prognoza

Raport powstał 1 godzina i 30 minut temu, godzina 11:00 UTC
Prognoza ważna od 24 godzina 12 UTC do 25 godzina 12 UTC
Wiatr 8 kt od wschodnio-południowy wschód
Widzialność 10 km lub więcej
Rozproszone chmury na wysokości 2000 ft

TAF: LIMJ 241100Z 2412/2512 12008KT 9999 SCT020

Obserwacja i prognoza pogody dla ponad 4000 lotnisk (raport METAR i TAF).

Dostępne stacje oznaczono żółtymi i czerwonymi punktami na mapie.

Najedź kursorem aby zobaczyć nazwę stacji.

Kliknij aby zobaczyć obserwacje i prognozy pogody.

Aby zmienić mapę: kliknij na zielony przycisk z czarnym krzyżykiem, aby powiększyć; na zielony przycisk z myślnikiem, aby pomniejszyć; na zielone strzałki, aby przejść do map sąsiednich.


METAR-TAF: